Aviation Digital Data Service (ADDS)

Output produced by METARs form (0732 UTC 17 September 2014)
found at http://aviationweather.gov/adds/metars/
 
KBDL 170521Z 1706/1812 00000KT P6SM FEW080 
     FM172100 24006KT P6SM FEW250 
     FM180500 00000KT P6SM FEW250